Time;durP1;ratioP1;P1;durP2;ratioP2;P2;SDS_P1;SDS_P2;PMS_P1;PMS_P2;Temp;Humidity;BMP_temperature;BMP_pressure;BME280_temperature;BME280_humidity;BME280_pressure;Samples;Min_cycle;Max_cycle;Signal;HPM_P1;HPM_P2
2021/05/03 00:07:12;;;;;;;3.80;2.08;;;14.80;50.10;;;;;;20837091;28;20086;-61
2021/05/03 00:17:13;;;;;;;4.28;1.90;;;14.80;50.50;;;;;;20835823;28;20076;-55
2021/05/03 00:27:14;;;;;;;8.43;2.63;;;14.70;51.20;;;;;;20836150;28;20136;-65
2021/05/03 00:37:16;;;;;;;5.15;2.03;;;14.60;51.80;;;;;;20835618;28;20124;-54
2021/05/03 00:47:18;;;;;;;6.55;1.95;;;14.70;52.20;;;;;;20834434;28;20049;-57
2021/05/03 00:57:20;;;;;;;4.40;2.10;;;14.60;52.50;;;;;;20836178;28;20108;-54
2021/05/03 01:07:21;;;;;;;4.65;1.80;;;14.70;52.60;;;;;;20834881;28;20413;-58
2021/05/03 01:17:35;;;;;;;4.20;1.80;;;14.70;52.80;;;;;;20832492;28;20513;-64
2021/05/03 01:27:37;;;;;;;3.80;1.95;;;14.70;52.40;;;;;;20833176;28;20065;-54
2021/05/03 01:37:38;;;;;;;4.68;2.10;;;14.60;52.90;;;;;;20830695;28;20110;-55
2021/05/03 01:47:40;;;;;;;3.03;1.95;;;14.60;53.30;;;;;;20830912;28;20075;-55
2021/05/03 01:57:41;;;;;;;3.55;2.00;;;14.70;53.10;;;;;;20831066;28;20068;-55
2021/05/03 02:07:43;;;;;;;5.72;1.70;;;14.60;52.70;;;;;;20832720;28;20486;-55
2021/05/03 02:17:44;;;;;;;4.95;1.92;;;14.40;53.40;;;;;;20845664;28;20049;-67
2021/05/03 02:27:46;;;;;;;5.20;2.13;;;14.40;54.00;;;;;;20845742;28;20615;-55
2021/05/03 02:37:52;;;;;;;4.03;2.15;;;14.30;54.20;;;;;;20845632;28;20064;-57
2021/05/03 02:47:54;;;;;;;5.72;1.90;;;14.40;54.50;;;;;;20843834;28;20057;-54
2021/05/03 02:57:55;;;;;;;5.57;2.20;;;14.30;54.60;;;;;;20843898;28;20057;-69
2021/05/03 03:08:04;;;;;;;3.10;1.90;;;14.30;54.80;;;;;;20843067;28;20490;-54
2021/05/03 03:18:06;;;;;;;5.05;2.22;;;14.20;55.10;;;;;;20842771;28;20072;-54
2021/05/03 03:28:08;;;;;;;6.10;2.45;;;14.20;55.40;;;;;;20841921;28;20068;-64
2021/05/03 03:38:09;;;;;;;6.05;2.22;;;14.20;55.60;;;;;;20843307;28;20482;-67
2021/05/03 03:48:11;;;;;;;3.70;2.10;;;14.20;55.70;;;;;;20839360;28;20481;-60
2021/05/03 03:58:12;;;;;;;5.28;2.40;;;14.20;55.60;;;;;;20839330;28;20553;-60
2021/05/03 04:28:37;;;;;;;3.08;2.00;;;14.10;55.80;;;;;;20835651;28;20136;-58
2021/05/03 04:38:39;;;;;;;6.40;2.53;;;14.10;55.80;;;;;;20835114;28;20128;-54
2021/05/03 04:48:40;;;;;;;4.05;2.53;;;14.10;55.70;;;;;;20840403;28;20144;-67
2021/05/03 04:58:42;;;;;;;4.90;2.42;;;14.20;55.60;;;;;;20836214;28;20056;-67
2021/05/03 05:08:43;;;;;;;3.80;2.50;;;14.10;55.60;;;;;;20839322;28;20144;-63
2021/05/03 05:18:44;;;;;;;5.50;2.63;;;14.00;55.80;;;;;;20834988;28;20064;-61
2021/05/03 05:28:45;;;;;;;4.97;2.60;;;14.00;56.00;;;;;;20846784;28;20148;-55
2021/05/03 05:38:46;;;;;;;4.45;2.50;;;14.00;56.20;;;;;;20831665;28;20490;-55
2021/05/03 05:48:48;;;;;;;6.57;2.45;;;14.00;56.00;;;;;;20830386;28;20060;-54
2021/05/03 05:58:49;;;;;;;5.30;2.55;;;14.00;56.10;;;;;;20831054;28;20132;-56
2021/05/03 06:08:50;;;;;;;4.50;2.50;;;14.00;56.40;;;;;;20830735;28;20133;-63
2021/05/03 06:18:54;;;;;;;4.47;2.50;;;14.00;56.30;;;;;;20830561;28;20103;-55
2021/05/03 06:28:55;;;;;;;5.97;2.80;;;14.00;56.10;;;;;;20828664;28;20141;-58
2021/05/03 06:38:56;;;;;;;6.07;2.85;;;14.00;56.40;;;;;;20828107;28;20132;-56
2021/05/03 06:48:57;;;;;;;4.80;2.90;;;13.90;56.80;;;;;;20828745;28;20147;-56
2021/05/03 06:58:58;;;;;;;5.45;2.88;;;13.80;57.00;;;;;;20837831;28;20125;-57
2021/05/03 07:09:00;;;;;;;6.03;2.63;;;14.00;56.80;;;;;;20843227;28;20144;-63
2021/05/03 07:19:01;;;;;;;6.70;3.13;;;13.90;56.70;;;;;;20843215;28;20064;-58
2021/05/03 07:29:03;;;;;;;4.38;2.90;;;14.00;56.40;;;;;;20841222;28;20556;-64
2021/05/03 07:39:05;;;;;;;6.50;3.22;;;14.00;56.60;;;;;;20839993;28;20128;-60
2021/05/03 07:49:07;;;;;;;4.93;3.40;;;13.90;57.10;;;;;;20839800;28;20521;-60
2021/05/03 07:59:08;;;;;;;6.47;3.33;;;13.90;57.40;;;;;;20839368;28;20140;-57
2021/05/03 08:09:09;;;;;;;5.65;3.08;;;13.90;57.10;;;;;;20837628;28;20064;-55
2021/05/03 08:19:12;;;;;;;7.75;3.63;;;13.90;57.00;;;;;;20837731;28;20195;-56
2021/05/03 08:29:14;;;;;;;7.38;3.30;;;14.00;57.00;;;;;;20836029;28;20145;-60
2021/05/03 08:39:15;;;;;;;5.55;3.20;;;14.10;56.70;;;;;;20835540;28;20609;-55
2021/05/03 08:49:21;;;;;;;5.15;3.47;;;14.20;56.20;;;;;;20837278;28;20156;-55
2021/05/03 08:59:23;;;;;;;7.75;3.50;;;14.30;56.00;;;;;;20841717;28;20057;-58
2021/05/03 09:09:36;;;;;;;6.40;2.97;;;14.50;55.60;;;;;;20835303;28;20096;-65
2021/05/03 09:19:37;;;;;;;3.90;2.42;;;14.70;55.50;;;;;;20834530;28;20468;-54
2021/05/03 09:29:48;;;;;;;5.78;3.05;;;14.80;55.00;;;;;;20830766;28;20153;-56
2021/05/03 09:39:54;;;;;;;3.70;1.98;;;14.90;54.90;;;;;;20841532;28;20087;-63
2021/05/03 09:49:56;;;;;;;4.95;2.72;;;15.20;56.00;;;;;;20857937;28;20144;-55
2021/05/03 10:00:00;;;;;;;6.75;2.30;;;16.30;52.80;;;;;;20911048;28;20132;-56
2021/05/03 10:20:06;;;;;;;16.90;3.90;;;17.50;50.30;;;;;;20909679;28;20088;-56
2021/05/03 10:30:10;;;;;;;7.03;2.70;;;17.70;49.60;;;;;;20915476;28;20511;-56
2021/05/03 10:40:14;;;;;;;8.77;2.93;;;18.00;49.00;;;;;;20922192;28;20512;-62
2021/05/03 10:50:46;;;;;;;4.35;2.80;;;18.30;48.70;;;;;;20923803;28;20041;-58
2021/05/03 11:00:59;;;;;;;5.25;2.70;;;18.30;48.40;;;;;;20923450;28;20055;-56
2021/05/03 11:11:09;;;;;;;5.47;2.77;;;18.50;48.20;;;;;;20920877;28;20057;-58
2021/05/03 11:21:14;;;;;;;7.40;2.75;;;18.50;48.10;;;;;;20923442;28;20380;-59
2021/05/03 11:31:20;;;;;;;5.93;3.00;;;18.40;47.60;;;;;;20923299;28;20107;-58
2021/05/03 11:41:54;;;;;;;5.78;2.58;;;18.10;48.40;;;;;;20920268;28;20048;-60
2021/05/03 11:52:00;;;;;;;;;;;17.70;49.10;;;;;;20922755;28;20052;-60
2021/05/03 12:02:08;;;;;;;7.55;2.78;;;17.60;49.30;;;;;;20921774;28;20289;-60
2021/05/03 12:12:10;;;;;;;5.63;2.63;;;17.50;49.70;;;;;;20920402;28;20555;-61
2021/05/03 12:22:14;;;;;;;5.72;2.83;;;17.60;49.60;;;;;;20920531;28;20135;-61
2021/05/03 12:32:18;;;;;;;5.83;4.23;;;17.70;49.50;;;;;;20918296;28;20072;-62
2021/05/03 12:42:45;;;;;;;4.60;2.55;;;18.10;48.70;;;;;;20918699;28;20496;-62
2021/05/03 13:25:05;;;;;;;6.22;3.10;;;18.60;47.70;;;;;;20499850;28;20051;-61
2021/05/03 13:35:07;;;;;;;3.53;2.38;;;18.80;47.10;;;;;;20582937;28;20137;-61
2021/05/03 13:45:10;;;;;;;5.57;3.10;;;18.70;47.10;;;;;;20739760;28;20056;-61
2021/05/03 13:55:13;;;;;;;4.30;2.47;;;18.80;47.30;;;;;;20795792;28;20436;-61
2021/05/03 14:05:21;;;;;;;5.43;2.25;;;19.20;46.10;;;;;;20911034;28;20041;-60
2021/05/03 14:15:24;;;;;;;6.00;2.27;;;19.30;46.10;;;;;;20911523;28;20545;-59
2021/05/03 14:25:29;;;;;;;6.72;2.92;;;19.30;45.50;;;;;;20911650;28;20080;-58
2021/05/03 14:35:30;;;;;;;4.78;2.00;;;19.30;45.50;;;;;;20910224;28;20386;-61
2021/05/03 14:45:36;;;;;;;3.85;2.40;;;19.30;44.80;;;;;;20910237;28;20080;-61
2021/05/03 14:55:37;;;;;;;4.35;1.90;;;19.40;44.60;;;;;;20908589;28;20049;-60
2021/05/03 15:05:41;;;;;;;5.75;2.33;;;19.30;44.50;;;;;;20909678;28;20056;-59
2021/05/03 15:15:59;;;;;;;7.32;2.10;;;19.30;44.60;;;;;;20913059;28;20052;-60
2021/05/03 15:26:03;;;;;;;6.95;2.15;;;19.30;45.00;;;;;;20924258;28;20053;-58
2021/05/03 15:36:10;;;;;;;4.05;2.20;;;19.40;44.40;;;;;;20922369;28;20056;-59
2021/05/03 15:46:13;;;;;;;5.03;2.20;;;19.40;44.60;;;;;;20921769;28;20511;-59
2021/05/03 15:56:14;;;;;;;3.87;2.43;;;19.30;44.10;;;;;;20921084;28;20055;-59
2021/05/03 16:06:15;;;;;;;5.32;2.30;;;19.60;44.20;;;;;;20920878;28;20045;-59
2021/05/03 16:16:17;;;;;;;5.25;2.30;;;19.80;44.70;;;;;;20920353;28;20140;-59
2021/05/03 16:26:19;;;;;;;3.00;1.70;;;19.70;46.40;;;;;;20918980;28;20076;-61
2021/05/03 16:36:21;;;;;;;4.32;1.80;;;19.70;45.90;;;;;;20917287;28;20537;-62
2021/05/03 16:46:25;;;;;;;2.95;1.80;;;19.60;44.90;;;;;;20915597;28;20478;-60
2021/05/03 16:56:27;;;;;;;5.72;1.85;;;19.60;42.90;;;;;;20916936;28;20087;-59
2021/05/03 17:06:28;;;;;;;5.50;2.03;;;19.50;43.90;;;;;;20916248;28;20124;-60
2021/05/03 17:16:29;;;;;;;5.85;2.20;;;19.50;43.90;;;;;;20914209;28;20136;-59
2021/05/03 17:26:31;;;;;;;5.72;1.80;;;19.40;43.70;;;;;;20914346;28;20501;-60
2021/05/03 17:36:34;;;;;;;7.20;3.50;;;19.40;43.80;;;;;;20913470;28;20410;-59
2021/05/03 17:46:36;;;;;;;5.37;2.27;;;19.20;44.40;;;;;;20912264;28;20048;-59
2021/05/03 17:56:38;;;;;;;4.80;2.20;;;19.10;44.80;;;;;;20911290;28;20163;-58
2021/05/03 18:06:40;;;;;;;2.65;1.52;;;19.00;44.60;;;;;;20911926;28;20045;-60
2021/05/03 18:16:42;;;;;;;4.13;2.00;;;18.90;44.00;;;;;;20911206;28;20138;-58
2021/05/03 18:26:45;;;;;;;7.35;2.00;;;18.70;44.50;;;;;;20910738;28;20144;-60
2021/05/03 18:36:47;;;;;;;2.95;1.80;;;18.70;44.70;;;;;;20909187;28;20495;-59
2021/05/03 18:46:48;;;;;;;4.50;1.83;;;18.50;44.80;;;;;;20910468;28;20049;-59
2021/05/03 18:56:49;;;;;;;5.43;2.10;;;18.30;45.60;;;;;;20923200;28;20136;-59
2021/05/03 19:06:50;;;;;;;7.43;1.95;;;18.20;46.20;;;;;;20926615;28;20073;-59
2021/05/03 19:16:52;;;;;;;2.63;1.10;;;18.10;45.70;;;;;;20924514;28;20048;-60
2021/05/03 19:26:54;;;;;;;2.47;1.15;;;17.30;46.20;;;;;;20923539;28;20056;-59
2021/05/03 19:36:56;;;;;;;1.65;0.73;;;16.70;47.70;;;;;;20922694;28;20048;-59
2021/05/03 19:46:57;;;;;;;2.30;1.20;;;16.50;49.30;;;;;;20922260;28;20049;-60
2021/05/03 20:07:12;;;;;;;2.30;1.50;;;16.00;52.60;;;;;;20919142;28;20049;-60
2021/05/03 20:17:14;;;;;;;2.47;1.30;;;15.70;53.50;;;;;;20919692;28;20057;-60
2021/05/03 20:27:15;;;;;;;3.13;1.30;;;15.70;54.10;;;;;;20919255;28;20057;-60
2021/05/03 20:47:37;;;;;;;3.15;1.13;;;15.50;55.00;;;;;;20919129;28;20052;-59
2021/05/03 20:57:38;;;;;;;3.53;1.95;;;15.60;55.30;;;;;;20916462;28;20053;-62
2021/05/03 21:07:39;;;;;;;3.15;1.80;;;15.40;55.40;;;;;;20914658;28;20500;-58
2021/05/03 21:17:43;;;;;;;3.38;1.70;;;15.60;54.80;;;;;;20914973;28;20060;-59
2021/05/03 21:27:44;;;;;;;5.35;1.90;;;15.70;54.00;;;;;;20915251;28;20096;-61
2021/05/03 21:37:46;;;;;;;5.82;1.77;;;15.70;55.30;;;;;;20913595;28;20080;-60
2021/05/03 21:47:49;;;;;;;4.45;2.20;;;15.60;56.20;;;;;;20913088;28;20056;-61
2021/05/03 21:57:50;;;;;;;3.38;2.50;;;15.50;57.30;;;;;;20912066;28;20081;-60
2021/05/03 22:07:51;;;;;;;2.95;1.70;;;15.40;58.70;;;;;;20913997;28;20507;-59
2021/05/03 22:18:07;;;;;;;5.95;2.28;;;15.30;59.30;;;;;;20912165;28;20049;-59
2021/05/03 23:19:11;;;;;;;3.50;2.78;;;14.50;68.60;;;;;;20924820;28;20532;-59
2021/05/03 23:29:12;;;;;;;3.63;3.00;;;14.40;69.30;;;;;;20923820;28;20409;-61
2021/05/03 23:39:13;;;;;;;4.82;2.95;;;14.40;69.60;;;;;;20921143;28;20132;-61
2021/05/03 23:49:15;;;;;;;3.83;2.60;;;14.30;70.40;;;;;;20922380;28;20187;-61
2021/05/03 23:59:16;;;;;;;3.25;2.95;;;14.30;71.10;;;;;;20923115;28;20132;-62
